createdAt,value
2019-05-03T00:00:06.313Z,10.13
2019-05-03T00:02:26.734Z,10.60
2019-05-03T00:03:32.028Z,10.40
2019-05-03T00:04:37.974Z,9.55
2019-05-03T00:05:46.117Z,9.00
2019-05-03T00:06:52.082Z,9.13
2019-05-03T00:08:02.188Z,9.38
2019-05-03T00:09:09.387Z,8.93
2019-05-03T00:10:14.986Z,9.98
2019-05-03T00:11:22.094Z,8.78
2019-05-03T00:12:27.598Z,10.08
2019-05-03T00:13:32.666Z,9.78
2019-05-03T00:14:39.377Z,8.88
2019-05-03T00:15:52.225Z,9.40
2019-05-03T00:16:57.183Z,9.95
2019-05-03T00:18:02.416Z,10.03
2019-05-03T00:19:07.499Z,9.43
2019-05-03T00:20:12.699Z,8.70
2019-05-03T00:21:17.727Z,9.30
2019-05-03T00:22:22.703Z,9.13
2019-05-03T00:23:27.622Z,9.63
2019-05-03T00:24:32.671Z,9.13
2019-05-03T00:25:37.703Z,9.43
2019-05-03T00:26:42.903Z,8.35
2019-05-03T00:27:48.148Z,9.78
2019-05-03T00:28:53.069Z,9.38
2019-05-03T00:29:58.257Z,9.48
2019-05-03T00:31:03.711Z,8.40
2019-05-03T00:32:12.488Z,8.70
2019-05-03T00:33:17.661Z,9.33
2019-05-03T00:34:27.850Z,9.43
2019-05-03T00:35:54.972Z,8.95
2019-05-03T00:37:01.849Z,8.80
2019-05-03T00:38:08.445Z,8.65
2019-05-03T00:39:21.608Z,8.65
2019-05-03T00:40:29.933Z,8.28
2019-05-03T00:41:34.864Z,9.68
2019-05-03T00:42:39.875Z,9.85
2019-05-03T00:43:44.810Z,8.55
2019-05-03T00:44:51.677Z,9.08
2019-05-03T00:45:56.713Z,8.08
2019-05-03T00:47:02.325Z,7.95
2019-05-03T00:48:07.299Z,8.08
2019-05-03T00:49:12.309Z,8.30
2019-05-03T00:50:17.255Z,8.18
2019-05-03T00:51:22.626Z,8.53
2019-05-03T00:52:27.899Z,9.18
2019-05-03T00:53:32.818Z,9.50
2019-05-03T00:54:37.744Z,8.18
2019-05-03T00:55:42.765Z,8.93
2019-05-03T00:56:47.934Z,9.73
2019-05-03T00:57:53.122Z,9.50
2019-05-03T00:58:59.224Z,9.80
2019-05-03T01:00:04.560Z,10.03
2019-05-03T01:01:09.575Z,8.58
2019-05-03T01:02:14.612Z,10.78
2019-05-03T01:03:21.809Z,9.90
2019-05-03T01:04:26.510Z,9.35
2019-05-03T01:05:33.147Z,10.08
2019-05-03T01:06:38.184Z,9.30
2019-05-03T01:07:43.478Z,8.38
2019-05-03T01:08:48.800Z,8.88
2019-05-03T01:09:53.744Z,8.78
2019-05-03T01:10:58.680Z,8.55
2019-05-03T01:12:03.721Z,8.73
2019-05-03T01:13:08.876Z,8.55
2019-05-03T01:14:13.932Z,8.75
2019-05-03T01:15:26.216Z,8.28
2019-05-03T01:16:31.853Z,7.78
2019-05-03T01:17:36.930Z,8.08
2019-05-03T01:18:42.323Z,7.97
2019-05-03T01:19:47.328Z,7.28
2019-05-03T01:20:52.294Z,8.10
2019-05-03T01:21:57.299Z,8.08
2019-05-03T01:23:02.504Z,7.42
2019-05-03T01:24:07.503Z,7.40
2019-05-03T01:25:12.590Z,7.95
2019-05-03T01:26:17.942Z,8.38
2019-05-03T01:27:22.945Z,8.25
2019-05-03T01:28:28.655Z,7.03
2019-05-03T01:29:33.654Z,7.47
2019-05-03T01:30:38.872Z,7.60
2019-05-03T01:31:44.053Z,7.30
2019-05-03T01:32:49.482Z,8.10
2019-05-03T01:33:54.814Z,6.75
2019-05-03T01:34:59.767Z,7.25
2019-05-03T01:36:04.975Z,7.58
2019-05-03T01:37:11.817Z,8.03
2019-05-03T01:38:19.396Z,7.90
2019-05-03T01:39:23.671Z,6.58
2019-05-03T01:40:28.678Z,7.33
2019-05-03T01:41:33.611Z,6.83
2019-05-03T01:42:38.591Z,7.45
2019-05-03T01:43:43.507Z,6.28
2019-05-03T01:44:48.529Z,7.00
2019-05-03T01:45:53.698Z,5.95
2019-05-03T01:47:02.302Z,7.15
2019-05-03T01:48:21.599Z,6.70
2019-05-03T01:49:45.599Z,7.22
2019-05-03T01:51:02.852Z,6.20
2019-05-03T01:52:15.483Z,6.50
2019-05-03T01:53:21.652Z,7.05
2019-05-03T01:54:26.736Z,7.10
2019-05-03T01:55:49.567Z,7.87
2019-05-03T01:56:58.749Z,6.62
2019-05-03T01:58:01.940Z,7.78
2019-05-03T01:59:06.966Z,6.53
2019-05-03T02:00:14.937Z,7.37
2019-05-03T02:01:34.833Z,6.95
2019-05-03T02:02:56.426Z,6.60
2019-05-03T02:04:07.008Z,6.60
2019-05-03T02:05:40.022Z,6.67
2019-05-03T02:06:45.561Z,6.90
2019-05-03T02:07:51.966Z,6.70
2019-05-03T02:08:57.359Z,7.40
2019-05-03T02:10:02.858Z,7.50
2019-05-03T02:11:07.893Z,7.42
2019-05-03T02:12:12.880Z,7.03
2019-05-03T02:13:18.001Z,7.08
2019-05-03T02:14:22.931Z,6.40
2019-05-03T02:15:28.207Z,6.50
2019-05-03T02:16:33.313Z,6.58
2019-05-03T02:17:38.579Z,6.15
2019-05-03T02:18:43.503Z,6.83
2019-05-03T02:19:48.643Z,7.03
2019-05-03T02:20:54.077Z,6.15
2019-05-03T02:21:59.001Z,6.80
2019-05-03T02:23:04.035Z,6.90
2019-05-03T02:24:09.252Z,6.90
2019-05-03T02:25:14.248Z,7.05
2019-05-03T02:26:19.794Z,7.33
2019-05-03T02:27:24.711Z,6.30
2019-05-03T02:28:29.733Z,6.62
2019-05-03T02:29:34.987Z,6.20
2019-05-03T02:30:43.681Z,6.62
2019-05-03T02:31:46.970Z,6.30
2019-05-03T02:32:53.338Z,7.55
2019-05-03T02:33:58.467Z,6.62
2019-05-03T02:35:03.574Z,7.70
2019-05-03T02:36:08.489Z,7.42
2019-05-03T02:37:14.075Z,7.17
2019-05-03T02:38:19.390Z,7.25
2019-05-03T02:39:24.429Z,7.50
2019-05-03T02:40:29.409Z,7.30
2019-05-03T02:41:34.355Z,6.55
2019-05-03T02:42:39.437Z,6.10
2019-05-03T02:43:47.610Z,7.42
2019-05-03T02:44:55.156Z,8.33
2019-05-03T02:46:07.302Z,8.00
2019-05-03T02:47:30.187Z,6.92
2019-05-03T02:48:41.380Z,7.47
2019-05-03T02:49:56.001Z,7.45
2019-05-03T02:51:00.411Z,7.33
2019-05-03T02:52:06.677Z,7.03
2019-05-03T02:53:12.237Z,7.35
2019-05-03T02:54:17.393Z,7.25
2019-05-03T02:55:25.720Z,7.20
2019-05-03T02:56:29.601Z,7.87
2019-05-03T02:57:35.259Z,7.80
2019-05-03T02:58:40.224Z,7.55
2019-05-03T02:59:49.728Z,7.25
2019-05-03T03:00:58.310Z,8.40
2019-05-03T03:02:06.126Z,7.45
2019-05-03T03:03:10.732Z,7.47
2019-05-03T03:04:17.223Z,7.40
2019-05-03T03:05:25.187Z,7.47
2019-05-03T03:06:31.586Z,7.50
2019-05-03T03:07:37.707Z,7.78
2019-05-03T03:08:46.029Z,7.55
2019-05-03T03:09:51.692Z,7.33
2019-05-03T03:11:00.124Z,8.55
2019-05-03T03:12:07.129Z,7.40
2019-05-03T03:13:16.214Z,7.50
2019-05-03T03:14:22.182Z,8.38
2019-05-03T03:15:28.987Z,9.08
2019-05-03T03:16:36.402Z,9.05
2019-05-03T03:17:45.671Z,7.45
2019-05-03T03:18:52.594Z,8.55
2019-05-03T03:19:59.403Z,9.20
2019-05-03T03:21:08.365Z,9.30
2019-05-03T03:22:16.338Z,7.50
2019-05-03T03:23:26.105Z,7.78
2019-05-03T03:24:31.952Z,8.38
2019-05-03T03:25:40.237Z,8.80
2019-05-03T03:26:47.378Z,8.15
2019-05-03T03:27:56.479Z,8.93
2019-05-03T03:29:06.125Z,9.35
2019-05-03T03:30:31.643Z,10.18
2019-05-03T03:32:01.275Z,9.88
2019-05-03T03:33:09.732Z,8.90
2019-05-03T03:34:18.161Z,8.10
2019-05-03T03:35:29.950Z,7.60
2019-05-03T03:36:57.972Z,8.55
2019-05-03T03:37:46.246Z,9.55
2019-05-03T03:38:51.056Z,9.33
2019-05-03T03:39:56.524Z,8.08
2019-05-03T03:41:05.604Z,8.65
2019-05-03T03:42:11.012Z,9.10
2019-05-03T03:43:17.540Z,8.53
2019-05-03T03:44:25.374Z,9.48
2019-05-03T03:45:30.114Z,9.08
2019-05-03T03:46:37.898Z,8.95
2019-05-03T03:47:46.411Z,9.38
2019-05-03T03:48:55.934Z,10.50
2019-05-03T03:50:01.949Z,9.00
2019-05-03T03:51:09.927Z,8.98
2019-05-03T03:52:16.125Z,9.75
2019-05-03T03:53:22.724Z,9.30
2019-05-03T03:54:31.064Z,9.88
2019-05-03T03:55:38.708Z,8.88
2019-05-03T03:57:02.194Z,8.98
2019-05-03T03:57:55.687Z,9.28
2019-05-03T03:59:00.964Z,7.83
2019-05-03T04:00:09.767Z,8.38
2019-05-03T04:01:15.700Z,8.80
2019-05-03T04:02:21.059Z,9.30
2019-05-03T04:03:26.527Z,8.58
2019-05-03T04:04:32.416Z,8.65
2019-05-03T04:05:37.858Z,9.20
2019-05-03T04:06:43.047Z,8.98
2019-05-03T04:07:48.092Z,9.78
2019-05-03T04:08:56.095Z,9.75
2019-05-03T04:10:00.860Z,10.50
2019-05-03T04:11:06.429Z,9.30
2019-05-03T04:12:12.215Z,9.43
2019-05-03T04:13:18.476Z,9.50
2019-05-03T04:14:29.627Z,9.68
2019-05-03T04:15:50.110Z,8.70
2019-05-03T04:17:08.453Z,9.70
2019-05-03T04:18:25.740Z,9.73
2019-05-03T04:19:36.401Z,9.45
2019-05-03T04:20:40.609Z,9.30
2019-05-03T04:21:45.704Z,8.85
2019-05-03T04:22:50.631Z,9.70
2019-05-03T04:23:56.130Z,9.30
2019-05-03T04:25:01.782Z,9.30
2019-05-03T04:26:07.187Z,9.45
2019-05-03T04:27:19.678Z,9.70
2019-05-03T04:28:20.200Z,9.90
2019-05-03T04:29:25.760Z,10.55
2019-05-03T04:30:30.862Z,11.08
2019-05-03T04:31:36.739Z,8.98
2019-05-03T04:32:41.927Z,9.40
2019-05-03T04:33:47.043Z,10.08
2019-05-03T04:34:52.735Z,9.55
2019-05-03T04:35:57.847Z,9.98
2019-05-03T04:37:05.274Z,10.45
2019-05-03T04:38:09.583Z,11.00
2019-05-03T04:39:19.678Z,9.63
2019-05-03T04:40:21.445Z,9.95
2019-05-03T04:41:27.139Z,10.20
2019-05-03T04:42:32.182Z,10.20
2019-05-03T04:43:37.168Z,9.68
2019-05-03T04:44:45.350Z,9.30
2019-05-03T04:46:06.221Z,10.30
2019-05-03T04:47:10.275Z,9.70
2019-05-03T04:48:16.214Z,9.85
2019-05-03T04:49:21.410Z,8.23
2019-05-03T04:50:26.408Z,8.55
2019-05-03T04:51:31.453Z,8.65
2019-05-03T04:52:36.400Z,8.18
2019-05-03T04:53:45.470Z,9.43
2019-05-03T04:54:56.222Z,9.85
2019-05-03T04:56:01.693Z,7.83
2019-05-03T04:57:06.976Z,8.25
2019-05-03T04:58:11.937Z,7.40
2019-05-03T04:59:16.976Z,6.42
2019-05-03T05:00:22.179Z,6.50
2019-05-03T05:01:27.141Z,6.17
2019-05-03T05:02:35.234Z,7.17
2019-05-03T05:03:39.423Z,4.50
2019-05-03T05:04:46.341Z,6.08
2019-05-03T05:05:51.289Z,6.15
2019-05-03T05:06:56.235Z,6.45
2019-05-03T05:08:01.180Z,6.65
2019-05-03T05:09:07.246Z,6.95
2019-05-03T05:10:15.114Z,6.87
2019-05-03T05:11:19.272Z,7.00
2019-05-03T05:12:25.279Z,5.80
2019-05-03T05:13:30.336Z,6.70
2019-05-03T05:14:35.542Z,5.20
2019-05-03T05:15:40.708Z,6.30
2019-05-03T05:16:46.571Z,6.70
2019-05-03T05:18:05.768Z,5.65
2019-05-03T05:19:15.137Z,5.50
2019-05-03T05:20:26.230Z,5.28
2019-05-03T05:21:35.516Z,6.05
2019-05-03T05:22:40.638Z,5.40
2019-05-03T05:24:02.327Z,5.28
2019-05-03T05:25:11.118Z,5.60
2019-05-03T05:26:19.162Z,5.97
2019-05-03T05:27:29.911Z,5.95
2019-05-03T05:28:47.655Z,5.37
2019-05-03T05:29:52.852Z,4.97
2019-05-03T05:30:58.279Z,4.85
2019-05-03T05:32:05.195Z,4.70
2019-05-03T05:33:20.558Z,5.60
2019-05-03T05:34:25.728Z,5.33
2019-05-03T05:35:30.730Z,4.90
2019-05-03T05:36:35.669Z,4.83
2019-05-03T05:37:40.878Z,5.15
2019-05-03T05:38:45.848Z,4.83
2019-05-03T05:39:50.993Z,5.17
2019-05-03T05:40:56.343Z,4.62
2019-05-03T05:42:01.429Z,5.37
2019-05-03T05:43:06.442Z,5.35
2019-05-03T05:44:11.795Z,5.00
2019-05-03T05:45:16.787Z,6.12
2019-05-03T05:46:24.911Z,5.53
2019-05-03T05:47:46.652Z,5.22
2019-05-03T05:48:51.867Z,6.33
2019-05-03T05:50:00.913Z,5.50
2019-05-03T05:51:06.142Z,5.15
2019-05-03T05:52:11.656Z,6.03
2019-05-03T05:53:16.809Z,5.10
2019-05-03T05:54:21.865Z,5.83
2019-05-03T05:55:44.846Z,5.78
2019-05-03T05:57:05.047Z,6.00
2019-05-03T05:58:19.517Z,5.30
2019-05-03T05:59:29.344Z,5.55
2019-05-03T06:00:44.678Z,4.92
2019-05-03T06:01:58.379Z,4.83
2019-05-03T06:03:05.151Z,5.17
2019-05-03T06:04:10.241Z,5.40
2019-05-03T06:05:15.332Z,4.78
2019-05-03T06:06:30.803Z,5.42
2019-05-03T06:07:51.789Z,4.62
2019-05-03T06:09:05.086Z,4.97
2019-05-03T06:10:16.735Z,5.78
2019-05-03T06:11:29.282Z,4.60
2019-05-03T06:12:45.504Z,4.97
2019-05-03T06:13:55.116Z,4.67
2019-05-03T06:15:04.736Z,4.60
2019-05-03T06:16:17.669Z,4.42
2019-05-03T06:17:27.209Z,4.87
2019-05-03T06:18:39.184Z,5.40
2019-05-03T06:20:05.453Z,4.95
2019-05-03T06:21:20.363Z,5.47
2019-05-03T06:22:31.936Z,4.53
2019-05-03T06:23:40.958Z,4.15
2019-05-03T06:24:50.981Z,4.37
2019-05-03T06:25:55.949Z,4.95
2019-05-03T06:27:15.226Z,4.80
2019-05-03T06:28:28.811Z,4.00
2019-05-03T06:29:35.174Z,4.17
2019-05-03T06:31:02.350Z,4.40
2019-05-03T06:32:31.906Z,4.08
2019-05-03T06:33:36.947Z,4.00
2019-05-03T06:34:41.945Z,4.37
2019-05-03T06:35:46.967Z,3.55
2019-05-03T06:36:55.290Z,3.47
2019-05-03T06:38:00.204Z,4.20
2019-05-03T06:39:08.522Z,3.90
2019-05-03T06:40:14.901Z,3.87
2019-05-03T06:41:20.019Z,3.75
2019-05-03T06:42:25.526Z,3.30
2019-05-03T06:43:30.822Z,3.40
2019-05-03T06:44:36.056Z,3.80
2019-05-03T06:45:45.826Z,3.42
2019-05-03T06:46:48.025Z,4.03
2019-05-03T06:47:55.088Z,3.60
2019-05-03T06:49:01.037Z,3.98
2019-05-03T06:50:06.347Z,3.20
2019-05-03T06:51:17.227Z,3.27
2019-05-03T06:52:19.893Z,3.30
2019-05-03T06:53:25.572Z,3.65
2019-05-03T06:54:30.628Z,3.30
2019-05-03T06:55:39.699Z,3.27
2019-05-03T06:56:42.494Z,9.23
2019-05-03T06:57:49.509Z,3.10
2019-05-03T06:58:55.216Z,3.58
2019-05-03T07:00:11.379Z,2.42
2019-05-03T07:01:28.414Z,3.75
2019-05-03T07:02:48.201Z,3.10
2019-05-03T07:04:00.317Z,3.00
2019-05-03T07:05:07.107Z,2.80
2019-05-03T07:06:40.652Z,3.27
2019-05-03T07:07:49.302Z,4.00
2019-05-03T07:09:02.833Z,2.60
2019-05-03T07:10:12.005Z,3.42
2019-05-03T07:11:17.020Z,3.77
2019-05-03T07:12:22.096Z,3.05
2019-05-03T07:13:27.021Z,2.90
2019-05-03T07:14:32.040Z,3.17
2019-05-03T07:15:36.985Z,2.85
2019-05-03T07:16:41.922Z,3.08
2019-05-03T07:17:46.897Z,2.85
2019-05-03T07:18:51.856Z,2.52
2019-05-03T07:19:56.786Z,3.10
2019-05-03T07:21:01.794Z,2.80
2019-05-03T07:22:06.879Z,3.20
2019-05-03T07:23:11.961Z,2.55
2019-05-03T07:24:17.449Z,4.45
2019-05-03T07:25:22.437Z,2.75
2019-05-03T07:26:27.689Z,3.05
2019-05-03T07:27:34.871Z,3.45
2019-05-03T07:28:47.118Z,3.20
2019-05-03T07:29:46.594Z,3.80
2019-05-03T07:30:51.553Z,2.75
2019-05-03T07:31:56.518Z,2.55
2019-05-03T07:33:05.824Z,2.50
2019-05-03T07:34:10.790Z,2.72
2019-05-03T07:35:15.894Z,2.87
2019-05-03T07:36:20.845Z,2.65
2019-05-03T07:37:25.796Z,2.80
2019-05-03T07:38:30.800Z,2.92
2019-05-03T07:39:35.806Z,2.20
2019-05-03T07:40:41.052Z,2.65
2019-05-03T07:41:46.246Z,2.47
2019-05-03T07:42:51.274Z,2.25
2019-05-03T07:43:56.515Z,2.70
2019-05-03T07:45:01.491Z,2.47
2019-05-03T07:46:06.585Z,2.65
2019-05-03T07:47:11.735Z,2.47
2019-05-03T07:48:16.940Z,2.60
2019-05-03T07:49:21.971Z,2.58
2019-05-03T07:50:27.359Z,4.25
2019-05-03T07:51:32.336Z,2.72
2019-05-03T07:52:37.249Z,2.60
2019-05-03T07:53:42.229Z,2.30
2019-05-03T07:54:47.219Z,2.62
2019-05-03T07:56:17.324Z,2.50
2019-05-03T07:57:45.315Z,2.22
2019-05-03T07:59:00.007Z,2.42
2019-05-03T07:59:59.760Z,2.42
2019-05-03T08:01:09.987Z,2.45
2019-05-03T08:02:15.032Z,3.10
2019-05-03T08:03:20.138Z,3.00
2019-05-03T08:04:25.662Z,2.60
2019-05-03T08:05:30.850Z,3.25
2019-05-03T08:06:35.849Z,2.70
2019-05-03T08:07:43.797Z,4.35
2019-05-03T08:08:47.702Z,3.35
2019-05-03T08:09:52.628Z,2.80
2019-05-03T08:10:57.810Z,2.95
2019-05-03T08:12:04.901Z,2.20
2019-05-03T08:13:09.481Z,2.67
2019-05-03T08:14:18.003Z,2.10
2019-05-03T08:15:21.536Z,2.22
2019-05-03T08:16:26.564Z,2.10
2019-05-03T08:17:31.790Z,2.50
2019-05-03T08:18:36.790Z,2.37
2019-05-03T08:19:41.829Z,3.22
2019-05-03T08:20:47.248Z,2.52
2019-05-03T08:21:52.287Z,2.35
2019-05-03T08:22:57.233Z,2.10
2019-05-03T08:24:04.393Z,2.20
2019-05-03T08:25:09.051Z,2.47
2019-05-03T08:26:15.271Z,2.40
2019-05-03T08:27:20.336Z,2.02
2019-05-03T08:28:25.525Z,2.58
2019-05-03T08:29:30.728Z,2.05
2019-05-03T08:30:55.815Z,1.95
2019-05-03T08:32:07.755Z,3.10
2019-05-03T08:33:35.420Z,2.30
2019-05-03T08:34:51.106Z,2.27
2019-05-03T08:35:56.137Z,2.42
2019-05-03T08:37:05.401Z,2.27
2019-05-03T08:38:10.623Z,3.15
2019-05-03T08:39:15.871Z,2.27
2019-05-03T08:40:24.420Z,2.60
2019-05-03T08:41:30.776Z,2.30
2019-05-03T08:42:35.831Z,2.85
2019-05-03T08:43:40.820Z,2.87
2019-05-03T08:44:45.730Z,2.83
2019-05-03T08:45:50.619Z,2.65
2019-05-03T08:46:56.386Z,2.45
2019-05-03T08:48:01.523Z,2.45
2019-05-03T08:49:06.674Z,2.12
2019-05-03T08:50:15.770Z,2.35
2019-05-03T08:51:18.666Z,3.00
2019-05-03T08:52:24.792Z,2.30
2019-05-03T08:53:30.020Z,2.45
2019-05-03T08:54:35.106Z,2.60
2019-05-03T08:55:40.031Z,4.17
2019-05-03T08:56:45.326Z,2.80
2019-05-03T08:57:50.283Z,2.50
2019-05-03T08:58:55.586Z,3.00
2019-05-03T09:00:01.066Z,2.83
2019-05-03T09:01:06.252Z,2.40
2019-05-03T09:02:17.765Z,2.40
2019-05-03T09:03:18.189Z,2.12
2019-05-03T09:04:34.218Z,2.65
2019-05-03T09:05:30.294Z,2.55
2019-05-03T09:06:35.523Z,2.92
2019-05-03T09:07:40.817Z,3.20
2019-05-03T09:08:45.994Z,2.80
2019-05-03T09:09:58.250Z,2.62
2019-05-03T09:11:09.930Z,2.67
2019-05-03T09:12:15.455Z,2.50
2019-05-03T09:13:21.348Z,2.75
2019-05-03T09:14:38.748Z,3.12
2019-05-03T09:15:34.992Z,2.50
2019-05-03T09:16:40.029Z,2.37
2019-05-03T09:17:44.960Z,3.30
2019-05-03T09:18:49.967Z,2.98
2019-05-03T09:19:55.128Z,2.85
2019-05-03T09:21:00.262Z,3.75
2019-05-03T09:22:06.164Z,2.92
2019-05-03T09:23:11.459Z,2.75
2019-05-03T09:24:16.378Z,2.72
2019-05-03T09:25:21.687Z,2.35
2019-05-03T09:26:29.383Z,3.37
2019-05-03T09:27:34.435Z,2.72
2019-05-03T09:28:39.335Z,2.60
2019-05-03T09:29:46.218Z,2.83
2019-05-03T09:30:51.023Z,2.83
2019-05-03T09:31:56.113Z,3.12
2019-05-03T09:33:01.129Z,2.80
2019-05-03T09:34:08.218Z,3.70
2019-05-03T09:35:28.933Z,3.30
2019-05-03T09:36:21.317Z,3.30
2019-05-03T09:37:26.321Z,2.90
2019-05-03T09:38:31.495Z,3.00
2019-05-03T09:39:36.588Z,3.20
2019-05-03T09:40:41.663Z,3.45
2019-05-03T09:41:46.608Z,3.33
2019-05-03T09:42:51.862Z,2.72
2019-05-03T09:43:56.793Z,2.90
2019-05-03T09:45:01.888Z,3.08
2019-05-03T09:46:07.091Z,3.12
2019-05-03T09:47:14.519Z,3.25
2019-05-03T09:48:19.033Z,3.58
2019-05-03T09:49:25.322Z,3.50
2019-05-03T09:50:30.482Z,3.67
2019-05-03T09:51:35.453Z,4.40
2019-05-03T09:52:40.581Z,3.70
2019-05-03T09:53:51.129Z,3.52
2019-05-03T09:54:57.735Z,3.83
2019-05-03T09:56:05.036Z,3.52
2019-05-03T09:57:09.819Z,3.50
2019-05-03T09:58:15.425Z,3.12
2019-05-03T09:59:20.554Z,3.37
2019-05-03T10:00:25.579Z,4.35
2019-05-03T10:01:30.557Z,3.77
2019-05-03T10:02:35.847Z,3.35
2019-05-03T10:03:41.120Z,2.80
2019-05-03T10:04:46.142Z,2.98
2019-05-03T10:05:51.176Z,3.08
2019-05-03T10:06:56.316Z,2.70
2019-05-03T10:08:01.273Z,2.72
2019-05-03T10:09:06.827Z,3.37
2019-05-03T10:10:12.329Z,3.17
2019-05-03T10:11:17.881Z,2.67
2019-05-03T10:12:25.538Z,2.50
2019-05-03T10:13:30.528Z,3.80
2019-05-03T10:14:35.737Z,3.22
2019-05-03T10:15:41.295Z,2.70
2019-05-03T10:17:05.395Z,3.33
2019-05-03T10:18:13.324Z,3.60
2019-05-03T10:19:18.295Z,2.92
2019-05-03T10:20:25.289Z,3.70
2019-05-03T10:21:31.998Z,2.98
2019-05-03T10:22:37.026Z,2.77
2019-05-03T10:23:42.122Z,3.10
2019-05-03T10:24:47.173Z,2.60
2019-05-03T10:25:52.161Z,3.42
2019-05-03T10:26:57.440Z,2.65
2019-05-03T10:28:02.587Z,3.00
2019-05-03T10:29:07.622Z,3.90
2019-05-03T10:30:16.618Z,3.42
2019-05-03T10:31:25.221Z,3.45
2019-05-03T10:32:38.522Z,3.08
2019-05-03T10:33:54.424Z,3.42
2019-05-03T10:35:05.504Z,3.60
2019-05-03T10:36:10.193Z,3.35
2019-05-03T10:37:30.102Z,3.42
2019-05-03T10:38:35.192Z,3.00
2019-05-03T10:39:40.193Z,3.05
2019-05-03T10:40:45.419Z,3.35
2019-05-03T10:41:50.684Z,3.55
2019-05-03T10:42:56.396Z,3.10
2019-05-03T10:44:01.717Z,3.40
2019-05-03T10:45:06.823Z,3.62
2019-05-03T10:46:11.907Z,2.80
2019-05-03T10:47:16.928Z,2.80
2019-05-03T10:48:22.192Z,3.50
2019-05-03T10:49:27.405Z,2.80
2019-05-03T10:50:34.237Z,3.10
2019-05-03T10:51:45.239Z,2.98
2019-05-03T10:52:56.961Z,2.58
2019-05-03T10:54:02.141Z,3.12
2019-05-03T10:55:07.372Z,2.77
2019-05-03T10:56:31.826Z,2.90
2019-05-03T10:57:39.390Z,3.10
2019-05-03T10:58:46.370Z,3.05
2019-05-03T10:59:51.486Z,2.72
2019-05-03T11:00:56.836Z,2.90
2019-05-03T11:02:20.855Z,2.87
2019-05-03T11:03:25.802Z,2.92
2019-05-03T11:04:30.841Z,3.50
2019-05-03T11:05:36.228Z,3.52
2019-05-03T11:06:41.473Z,2.47
2019-05-03T11:07:46.771Z,2.60
2019-05-03T11:08:51.723Z,3.50
2019-05-03T11:09:56.675Z,3.20
2019-05-03T11:11:02.116Z,3.40
2019-05-03T11:12:07.194Z,3.10
2019-05-03T11:13:12.487Z,3.20
2019-05-03T11:14:19.712Z,3.40
2019-05-03T11:15:25.838Z,3.80
2019-05-03T11:16:31.137Z,3.10
2019-05-03T11:17:36.271Z,3.22
2019-05-03T11:18:41.599Z,3.12
2019-05-03T11:19:47.139Z,3.25
2019-05-03T11:20:52.329Z,3.35
2019-05-03T11:21:57.643Z,3.40
2019-05-03T11:23:05.891Z,3.22
2019-05-03T11:24:10.709Z,3.52
2019-05-03T11:25:16.238Z,3.45
2019-05-03T11:26:21.288Z,3.37
2019-05-03T11:27:32.395Z,3.20
2019-05-03T11:28:37.411Z,3.00
2019-05-03T11:29:42.374Z,3.25
2019-05-03T11:30:56.484Z,3.30
2019-05-03T11:32:09.427Z,3.10
2019-05-03T11:33:17.754Z,3.00
2019-05-03T11:34:25.385Z,3.50
2019-05-03T11:35:36.078Z,3.00
2019-05-03T11:37:07.179Z,3.00
2019-05-03T11:38:18.689Z,3.10
2019-05-03T11:39:25.094Z,3.60
2019-05-03T11:40:30.347Z,3.60
2019-05-03T11:41:37.025Z,3.50
2019-05-03T11:42:42.150Z,3.10
2019-05-03T11:43:47.137Z,2.65
2019-05-03T11:44:52.288Z,4.20
2019-05-03T11:45:57.265Z,3.40
2019-05-03T11:47:02.493Z,3.17
2019-05-03T11:48:07.722Z,3.30
2019-05-03T11:49:14.777Z,3.70
2019-05-03T11:50:19.883Z,3.20
2019-05-03T11:51:24.931Z,3.67
2019-05-03T11:52:30.048Z,3.98
2019-05-03T11:53:35.744Z,3.20
2019-05-03T11:54:41.290Z,4.00
2019-05-03T11:55:46.594Z,3.10
2019-05-03T11:56:55.639Z,3.27
2019-05-03T11:58:02.732Z,3.47
2019-05-03T11:59:07.807Z,3.30
2019-05-03T12:00:15.845Z,3.72
2019-05-03T12:01:25.677Z,3.40
2019-05-03T12:02:52.738Z,2.95
2019-05-03T12:04:01.976Z,3.80
2019-05-03T12:05:10.946Z,4.15
2019-05-03T12:06:16.363Z,3.70
2019-05-03T12:07:46.410Z,3.20
2019-05-03T12:08:51.857Z,3.90
2019-05-03T12:09:57.288Z,3.70
2019-05-03T12:11:02.317Z,5.12
2019-05-03T12:12:08.183Z,3.52
2019-05-03T12:13:22.138Z,3.35
2019-05-03T12:14:27.049Z,4.10
2019-05-03T12:15:32.140Z,3.12
2019-05-03T12:17:11.666Z,3.83
2019-05-03T12:17:54.176Z,3.65
2019-05-03T12:18:53.949Z,3.60
2019-05-03T12:19:59.908Z,3.80
2019-05-03T12:21:08.570Z,3.80
2019-05-03T12:22:13.059Z,3.55
2019-05-03T12:23:18.996Z,3.98
2019-05-03T12:24:26.717Z,4.03
2019-05-03T12:25:31.714Z,4.00
2019-05-03T12:26:43.797Z,3.90
2019-05-03T12:27:44.489Z,3.42
2019-05-03T12:28:49.486Z,3.60
2019-05-03T12:29:54.915Z,2.98
2019-05-03T12:31:00.166Z,3.92
2019-05-03T12:32:05.621Z,3.98
2019-05-03T12:33:10.653Z,3.85
2019-05-03T12:34:16.024Z,3.70
2019-05-03T12:35:21.244Z,3.70
2019-05-03T12:36:26.275Z,3.65
2019-05-03T12:37:31.229Z,2.98
2019-05-03T12:38:36.299Z,3.60
2019-05-03T12:39:41.227Z,3.67
2019-05-03T12:40:46.394Z,3.98
2019-05-03T12:41:51.464Z,3.95
2019-05-03T12:42:56.545Z,3.87
2019-05-03T12:44:01.576Z,3.83
2019-05-03T12:45:06.653Z,4.10
2019-05-03T12:46:11.968Z,3.62
2019-05-03T12:47:17.218Z,4.05
2019-05-03T12:48:22.227Z,4.45
2019-05-03T12:49:27.238Z,3.90
2019-05-03T12:50:34.437Z,3.75
2019-05-03T12:51:39.119Z,3.45
2019-05-03T12:52:50.497Z,3.70
2019-05-03T12:53:50.864Z,3.95
2019-05-03T12:54:56.178Z,3.52
2019-05-03T12:56:01.206Z,4.42
2019-05-03T12:57:06.576Z,3.50
2019-05-03T12:58:11.498Z,3.60
2019-05-03T12:59:23.732Z,3.75
2019-05-03T13:00:41.014Z,4.67
2019-05-03T13:01:56.726Z,3.85
2019-05-03T13:03:04.963Z,3.30
2019-05-03T13:04:15.319Z,4.10
2019-05-03T13:05:20.348Z,3.85
2019-05-03T13:06:25.549Z,3.65
2019-05-03T13:07:36.116Z,3.05
2019-05-03T13:08:45.392Z,3.70
2019-05-03T13:09:50.097Z,3.30
2019-05-03T13:10:55.707Z,3.80
2019-05-03T13:12:00.907Z,3.50
2019-05-03T13:13:05.901Z,3.52
2019-05-03T13:14:11.144Z,3.40
2019-05-03T13:15:16.394Z,4.10
2019-05-03T13:16:21.403Z,3.50
2019-05-03T13:17:36.527Z,4.30
2019-05-03T13:18:41.675Z,3.70
2019-05-03T13:19:46.735Z,4.22
2019-05-03T13:20:51.841Z,3.62
2019-05-03T13:21:57.836Z,3.72
2019-05-03T13:23:05.290Z,3.52
2019-05-03T13:24:22.509Z,4.12
2019-05-03T13:25:16.719Z,3.80
2019-05-03T13:26:21.765Z,3.85
2019-05-03T13:27:26.764Z,3.35
2019-05-03T13:28:32.228Z,4.03
2019-05-03T13:29:37.218Z,3.42
2019-05-03T13:30:42.216Z,3.30
2019-05-03T13:31:58.162Z,3.67
2019-05-03T13:32:54.929Z,4.00
2019-05-03T13:33:59.992Z,3.20
2019-05-03T13:35:05.864Z,3.67
2019-05-03T13:36:10.904Z,3.85
2019-05-03T13:37:16.084Z,3.70
2019-05-03T13:38:21.114Z,3.50
2019-05-03T13:39:26.685Z,3.37
2019-05-03T13:40:31.666Z,3.72
2019-05-03T13:41:36.713Z,3.35
2019-05-03T13:42:54.258Z,3.40
2019-05-03T13:43:48.422Z,3.50
2019-05-03T13:44:55.257Z,4.30
2019-05-03T13:46:00.626Z,4.58
2019-05-03T13:47:05.659Z,3.83
2019-05-03T13:48:10.739Z,4.58
2019-05-03T13:49:16.045Z,4.28
2019-05-03T13:50:21.077Z,4.80
2019-05-03T13:51:26.002Z,3.92
2019-05-03T13:52:31.019Z,3.72
2019-05-03T13:53:36.067Z,3.85
2019-05-03T13:54:41.324Z,4.10
2019-05-03T13:55:46.611Z,4.28
2019-05-03T13:56:51.570Z,3.65
2019-05-03T13:57:56.629Z,4.00
2019-05-03T13:59:01.683Z,3.60
2019-05-03T14:00:06.913Z,4.75
2019-05-03T14:01:14.604Z,6.03
2019-05-03T14:02:19.428Z,4.00
2019-05-03T14:03:24.378Z,4.30
2019-05-03T14:04:29.380Z,4.67
2019-05-03T14:05:35.227Z,4.00
2019-05-03T14:06:40.460Z,4.60
2019-05-03T14:07:45.567Z,4.60
2019-05-03T14:08:51.041Z,4.33
2019-05-03T14:09:56.133Z,4.53
2019-05-03T14:11:01.237Z,4.12
2019-05-03T14:12:07.608Z,4.45
2019-05-03T14:13:12.566Z,3.95
2019-05-03T14:14:17.547Z,4.30
2019-05-03T14:15:22.535Z,4.30
2019-05-03T14:16:27.588Z,4.40
2019-05-03T14:17:32.487Z,4.20
2019-05-03T14:18:37.617Z,3.92
2019-05-03T14:19:42.700Z,4.45
2019-05-03T14:21:07.518Z,4.65
2019-05-03T14:22:12.907Z,4.58
2019-05-03T14:23:18.128Z,4.67
2019-05-03T14:24:24.580Z,4.40
2019-05-03T14:25:29.676Z,5.10
2019-05-03T14:26:35.248Z,4.37
2019-05-03T14:27:40.374Z,4.40
2019-05-03T14:28:45.387Z,4.72
2019-05-03T14:29:50.319Z,4.92
2019-05-03T14:30:55.257Z,5.05
2019-05-03T14:32:00.204Z,4.62
2019-05-03T14:33:05.357Z,4.80
2019-05-03T14:34:10.378Z,4.33
2019-05-03T14:35:16.249Z,4.80
2019-05-03T14:36:21.541Z,5.37
2019-05-03T14:37:26.476Z,6.33
2019-05-03T14:38:31.426Z,4.58
2019-05-03T14:39:36.447Z,5.12
2019-05-03T14:40:41.923Z,5.00
2019-05-03T14:41:47.038Z,4.50
2019-05-03T14:42:52.078Z,4.80
2019-05-03T14:43:57.078Z,5.17
2019-05-03T14:45:02.099Z,4.67
2019-05-03T14:46:07.355Z,4.83
2019-05-03T14:47:12.519Z,4.60
2019-05-03T14:48:17.517Z,4.83
2019-05-03T14:49:22.463Z,5.10
2019-05-03T14:50:27.524Z,4.75
2019-05-03T14:51:34.744Z,5.12
2019-05-03T14:52:39.476Z,4.70
2019-05-03T14:53:45.304Z,5.50